Kattu — DG2041 — position and weather

sailwx.info

Track history (hours):
 
Tides and Currents Weather Stations Pressure Air Temp Water Temp Dewpoint Dewpoint Depression Visibility Wind Speed Wind Dir Waves Ship Positions

Kattu

Last reported at 2018-Apr-15 01:00 UTC. Time now 2018-Jun-22 13:12 UTC.
Position N 39°17' W 009°28'.
Warning: this ship's position is months out of date.

Length 14 m.

Type: Sailing vessel. MMSI: 221788720.

Date/timePositionNaut miles runAvg speedWind from/ knotsBaromVisibWave heightAir tempDewpointWater temp
2018-Apr-15 01:00N 39°17' W 009°28'3 5.5
2018-Apr-15 00:25N 39°13' W 009°28'2 5.3
2018-Apr-15 00:00N 39°11' W 009°28'3 5.1
2018-Apr-14 23:30N 39°09' W 009°29'3 5.1
2018-Apr-14 23:00N 39°06' W 009°29'3 5.0
2018-Apr-14 22:30N 39°04' W 009°30'3 6.3
2018-Apr-14 22:00N 39°01' W 009°31'3 6.9
2018-Apr-14 21:30N 38°57' W 009°32'3 7.0
2018-Apr-14 21:00N 38°54' W 009°32'3 6.8
2018-Apr-14 20:29N 38°50' W 009°33'3 6.4
2018-Apr-14 20:00N 38°47' W 009°33'2 5.0
2018-Apr-14 19:30N 38°45' W 009°32'3 5.9
2018-Apr-14 18:58N 38°42' W 009°30'2 5.0
2018-Apr-14 18:29N 38°41' W 009°27'2 4.7
2018-Apr-14 18:00N 38°40' W 009°24'3 5.0
2018-Apr-14 17:26N 38°40' W 009°21'3 7.2
2018-Apr-14 16:57N 38°41' W 009°17'4 8.4
2018-Apr-14 16:28N 38°42' W 009°12'3 7.2
2018-Apr-14 16:00N 38°42' W 009°07'  
2018-Apr-08 16:03N 38°45' W 009°06'0 0.1
2018-Apr-08 15:57N 38°45' W 009°06'1 2.4
2018-Apr-08 15:26N 38°44' W 009°06'2 5.5
2018-Apr-08 15:00N 38°42' W 009°08'2 0.1
2018-Apr-07 08:34N 38°42' W 009°10'0 0.7
2018-Apr-07 08:29N 38°42' W 009°10'1 0.9
2018-Apr-07 07:50N 38°42' W 009°09'2 6.1
2018-Apr-07 07:30N 38°41' W 009°12'3 6.2
2018-Apr-07 06:58N 38°41' W 009°16'4 7.0
2018-Apr-07 06:27N 38°39' W 009°20'2 5.5
2018-Apr-07 06:00N 38°37' W 009°22'2 4.8
2018-Apr-07 05:30N 38°35' W 009°22'2 4.6
2018-Apr-07 05:00N 38°32' W 009°22'3 5.3
2018-Apr-07 04:30N 38°30' W 009°21'3 4.8
2018-Apr-07 03:58N 38°27' W 009°21'3 4.8
2018-Apr-07 03:23N 38°24' W 009°20'7 4.8
2018-Apr-07 02:01N 38°18' W 009°19'0 4.8
2018-Apr-07 01:58N 38°18' W 009°19'2 4.8
2018-Apr-07 01:30N 38°15' W 009°19'2 4.8
2018-Apr-07 01:00N 38°13' W 009°18'2 4.8
2018-Apr-07 00:30N 38°11' W 009°18'2 5.0
2018-Apr-07 00:00N 38°08' W 009°18'3 5.0
2018-Apr-06 23:30N 38°06' W 009°17'3 5.0
2018-Apr-06 23:00N 38°03' W 009°17'3 5.1
2018-Apr-06 22:30N 38°01' W 009°17'2 5.0
2018-Apr-06 22:00N 37°58' W 009°16'3 5.1
2018-Apr-06 21:30N 37°56' W 009°15'3 5.2
2018-Apr-06 21:00N 37°53' W 009°15'2 5.0
2018-Apr-06 20:30N 37°51' W 009°14'2 4.3
2018-Apr-06 20:00N 37°49' W 009°13'3 5.3
2018-Apr-06 19:30N 37°46' W 009°12'3 5.8
2018-Apr-06 19:00N 37°43' W 009°11'9 6.1
2018-Apr-06 17:36N 37°36' W 009°07'38 4.1
2018-Apr-06 08:20N 37°02' W 008°44'2 5.4
2018-Apr-06 07:59N 37°03' W 008°42'3 5.5
2018-Apr-06 07:30N 37°04' W 008°39'3 5.6
2018-Apr-06 07:00N 37°05' W 008°36'3 5.7
2018-Apr-06 06:29N 37°06' W 008°33'  
Track history (hours):
 
Tides and Currents Weather Stations Pressure Air Temp Water Temp Dewpoint Dewpoint Depression Visibility Wind Speed Wind Dir Waves Ship Positions

Kattu

Last reported at 2018-Apr-15 01:00 UTC. Time now 2018-Jun-22 13:12 UTC.
Position N 39°17' W 009°28'.
Warning: this ship's position is months out of date.

Length 14 m.

Type: Sailing vessel. MMSI: 221788720.

Date/timePositionNaut miles runAvg speedWind from/ knotsBaromVisibWave heightAir tempDewpointWater temp
2018-Apr-15 01:00N 39°17' W 009°28'3 5.5
2018-Apr-15 00:25N 39°13' W 009°28'2 5.3
2018-Apr-15 00:00N 39°11' W 009°28'3 5.1
2018-Apr-14 23:30N 39°09' W 009°29'3 5.1
2018-Apr-14 23:00N 39°06' W 009°29'3 5.0
2018-Apr-14 22:30N 39°04' W 009°30'3 6.3
2018-Apr-14 22:00N 39°01' W 009°31'3 6.9
2018-Apr-14 21:30N 38°57' W 009°32'3 7.0
2018-Apr-14 21:00N 38°54' W 009°32'3 6.8
2018-Apr-14 20:29N 38°50' W 009°33'3 6.4
2018-Apr-14 20:00N 38°47' W 009°33'2 5.0
2018-Apr-14 19:30N 38°45' W 009°32'3 5.9
2018-Apr-14 18:58N 38°42' W 009°30'2 5.0
2018-Apr-14 18:29N 38°41' W 009°27'2 4.7
2018-Apr-14 18:00N 38°40' W 009°24'3 5.0
2018-Apr-14 17:26N 38°40' W 009°21'3 7.2
2018-Apr-14 16:57N 38°41' W 009°17'4 8.4
2018-Apr-14 16:28N 38°42' W 009°12'3 7.2
2018-Apr-14 16:00N 38°42' W 009°07'  
2018-Apr-08 16:03N 38°45' W 009°06'0 0.1
2018-Apr-08 15:57N 38°45' W 009°06'1 2.4
2018-Apr-08 15:26N 38°44' W 009°06'2 5.5
2018-Apr-08 15:00N 38°42' W 009°08'2 0.1
2018-Apr-07 08:34N 38°42' W 009°10'0 0.7
2018-Apr-07 08:29N 38°42' W 009°10'1 0.9
2018-Apr-07 07:50N 38°42' W 009°09'2 6.1
2018-Apr-07 07:30N 38°41' W 009°12'3 6.2
2018-Apr-07 06:58N 38°41' W 009°16'4 7.0
2018-Apr-07 06:27N 38°39' W 009°20'2 5.5
2018-Apr-07 06:00N 38°37' W 009°22'2 4.8
2018-Apr-07 05:30N 38°35' W 009°22'2 4.6
2018-Apr-07 05:00N 38°32' W 009°22'3 5.3
2018-Apr-07 04:30N 38°30' W 009°21'3 4.8
2018-Apr-07 03:58N 38°27' W 009°21'3 4.8
2018-Apr-07 03:23N 38°24' W 009°20'7 4.8
2018-Apr-07 02:01N 38°18' W 009°19'0 4.8
2018-Apr-07 01:58N 38°18' W 009°19'2 4.8
2018-Apr-07 01:30N 38°15' W 009°19'2 4.8
2018-Apr-07 01:00N 38°13' W 009°18'2 4.8
2018-Apr-07 00:30N 38°11' W 009°18'2 5.0
2018-Apr-07 00:00N 38°08' W 009°18'3 5.0
2018-Apr-06 23:30N 38°06' W 009°17'3 5.0
2018-Apr-06 23:00N 38°03' W 009°17'3 5.1
2018-Apr-06 22:30N 38°01' W 009°17'2 5.0
2018-Apr-06 22:00N 37°58' W 009°16'3 5.1
2018-Apr-06 21:30N 37°56' W 009°15'3 5.2
2018-Apr-06 21:00N 37°53' W 009°15'2 5.0
2018-Apr-06 20:30N 37°51' W 009°14'2 4.3
2018-Apr-06 20:00N 37°49' W 009°13'3 5.3
2018-Apr-06 19:30N 37°46' W 009°12'3 5.8
2018-Apr-06 19:00N 37°43' W 009°11'9 6.1
2018-Apr-06 17:36N 37°36' W 009°07'38 4.1
2018-Apr-06 08:20N 37°02' W 008°44'2 5.4
2018-Apr-06 07:59N 37°03' W 008°42'3 5.5
2018-Apr-06 07:30N 37°04' W 008°39'3 5.6
2018-Apr-06 07:00N 37°05' W 008°36'3 5.7
2018-Apr-06 06:29N 37°06' W 008°33'  

Dump ship's entire track history